createdAt,value
2022-08-11T00:00:07.678Z,19.3
2022-08-11T00:05:08.396Z,19.3
2022-08-11T00:10:08.107Z,19.1
2022-08-11T00:15:07.797Z,19.1
2022-08-11T00:20:12.423Z,19.0
2022-08-11T00:25:07.779Z,19.0
2022-08-11T00:30:08.482Z,18.8
2022-08-11T00:35:54.254Z,18.8
2022-08-11T00:40:08.131Z,18.7
2022-08-11T00:45:13.173Z,18.7
2022-08-11T00:50:07.867Z,18.6
2022-08-11T00:55:08.552Z,18.6
2022-08-11T01:00:08.296Z,18.6
2022-08-11T01:05:17.983Z,18.6
2022-08-11T01:10:07.728Z,18.5
2022-08-11T01:15:08.413Z,18.5
2022-08-11T01:20:46.415Z,18.2
2022-08-11T01:25:08.515Z,18.2
2022-08-11T01:30:08.218Z,18.2
2022-08-11T01:35:07.900Z,18.2
2022-08-11T01:40:08.585Z,18.1
2022-08-11T01:45:08.282Z,18.1
2022-08-11T01:50:10.698Z,17.8
2022-08-11T01:55:08.577Z,17.8
2022-08-11T02:00:08.254Z,17.7
2022-08-11T02:05:17.915Z,17.7
2022-08-11T02:10:08.629Z,17.7
2022-08-11T02:15:08.452Z,17.7
2022-08-11T02:20:08.161Z,17.5
2022-08-11T02:25:07.843Z,17.5
2022-08-11T02:30:08.540Z,17.3
2022-08-11T02:35:08.260Z,17.3
2022-08-11T02:40:07.940Z,17.3
2022-08-11T02:45:10.258Z,17.3
2022-08-11T02:50:08.078Z,17.2
2022-08-11T02:55:07.775Z,17.2
2022-08-11T03:00:08.230Z,17.0
2022-08-11T03:05:07.901Z,17.0
2022-08-11T03:10:08.612Z,17.0
2022-08-11T03:15:08.299Z,17.0
2022-08-11T03:20:17.963Z,16.7
2022-08-11T03:25:11.096Z,16.7
2022-08-11T03:30:08.672Z,16.6
2022-08-11T03:35:08.374Z,16.6
2022-08-11T03:40:18.057Z,16.3
2022-08-11T03:45:07.725Z,16.3
2022-08-11T03:50:08.387Z,16.3
2022-08-11T03:55:08.057Z,16.2
2022-08-11T04:00:17.753Z,16.2
2022-08-11T04:05:02.673Z,16.2
2022-08-11T04:10:02.566Z,16.2
2022-08-11T04:15:06.435Z,16.0
2022-08-11T04:20:12.332Z,16.0
2022-08-11T04:25:02.176Z,16.0
2022-08-11T04:30:05.221Z,16.0
2022-08-11T04:35:02.568Z,16.2
2022-08-11T04:40:12.422Z,16.2
2022-08-11T04:45:02.261Z,16.2
2022-08-11T04:50:02.045Z,16.2
2022-08-11T04:55:11.846Z,16.2
2022-08-11T05:00:02.662Z,16.3
2022-08-11T05:05:02.486Z,16.3
2022-08-11T05:10:02.291Z,16.3
2022-08-11T05:15:02.149Z,16.6
2022-08-11T05:20:01.972Z,16.6
2022-08-11T05:25:01.773Z,16.7
2022-08-11T05:30:02.597Z,16.7
2022-08-11T05:35:02.480Z,17.1
2022-08-11T05:40:02.411Z,17.3
2022-08-11T05:45:02.393Z,17.3
2022-08-11T05:50:02.088Z,17.7
2022-08-11T05:55:06.921Z,17.7
2022-08-11T06:00:02.057Z,17.7
2022-08-11T06:05:01.890Z,18.2
2022-08-11T06:10:02.661Z,18.7
2022-08-11T06:15:02.498Z,18.7
2022-08-11T06:20:07.044Z,18.7
2022-08-11T06:25:02.434Z,19.2
2022-08-11T06:30:02.273Z,19.2
2022-08-11T06:35:02.110Z,19.7
2022-08-11T06:40:01.940Z,20.1
2022-08-11T06:45:01.942Z,20.1
2022-08-11T06:50:02.952Z,20.7
2022-08-11T06:55:01.826Z,20.7
2022-08-11T07:00:03.224Z,21.2
2022-08-11T07:05:02.131Z,21.2
2022-08-11T07:10:01.984Z,21.7
2022-08-11T07:15:01.916Z,21.7
2022-08-11T07:20:02.761Z,22.1
2022-08-11T07:25:12.564Z,22.1
2022-08-11T07:30:02.421Z,22.7
2022-08-11T07:35:02.448Z,22.7
2022-08-11T07:40:02.331Z,23.3
2022-08-11T07:45:02.297Z,23.3
2022-08-11T07:50:02.455Z,24.0
2022-08-11T07:55:02.392Z,24.0
2022-08-11T08:00:04.554Z,24.6
2022-08-11T08:05:12.912Z,26.1
2022-08-11T08:10:02.827Z,26.1
2022-08-11T08:15:02.744Z,27.2
2022-08-11T08:20:02.569Z,27.2
2022-08-11T08:25:02.322Z,28.6
2022-08-11T08:30:02.250Z,28.6
2022-08-11T08:35:02.017Z,29.1
2022-08-11T08:40:01.827Z,28.8
2022-08-11T08:45:02.650Z,28.8
2022-08-11T08:50:02.375Z,30.0
2022-08-11T08:55:02.222Z,30.0
2022-08-11T09:00:02.052Z,30.3
2022-08-11T09:05:01.874Z,30.3
2022-08-11T09:10:01.799Z,32.0
2022-08-11T09:15:02.778Z,32.0
2022-08-11T09:20:02.709Z,32.5
2022-08-11T09:25:02.578Z,32.5
2022-08-11T09:30:02.582Z,32.4
2022-08-11T09:35:02.490Z,32.4
2022-08-11T09:40:02.719Z,31.7
2022-08-11T09:45:02.613Z,31.7
2022-08-11T09:50:02.729Z,33.0
2022-08-11T09:55:02.654Z,33.0
2022-08-11T10:00:12.559Z,34.0
2022-08-11T10:05:12.413Z,34.0
2022-08-11T10:10:02.222Z,34.0
2022-08-11T10:15:01.963Z,34.0
2022-08-11T10:20:04.066Z,34.0
2022-08-11T10:25:02.383Z,34.0
2022-08-11T10:30:02.223Z,32.5
2022-08-11T10:35:02.043Z,33.0
2022-08-11T10:40:01.831Z,31.6
2022-08-11T10:45:02.698Z,33.7
2022-08-11T10:50:02.529Z,33.2
2022-08-11T10:55:02.262Z,33.5
2022-08-11T11:00:02.408Z,33.5
2022-08-11T11:05:02.328Z,33.5
2022-08-11T11:10:02.140Z,33.5
2022-08-11T11:15:01.982Z,33.4
2022-08-11T11:20:01.729Z,33.4
2022-08-11T11:25:02.470Z,33.2
2022-08-11T11:30:02.218Z,33.2
2022-08-11T11:35:12.137Z,34.7
2022-08-11T11:40:01.873Z,34.7
2022-08-11T11:45:02.645Z,35.9
2022-08-11T11:50:02.347Z,33.9
2022-08-11T11:55:02.198Z,34.7
2022-08-11T12:00:01.997Z,34.7
2022-08-11T12:05:02.040Z,34.9
2022-08-11T12:10:01.914Z,34.9
2022-08-11T12:15:02.966Z,36.2
2022-08-11T12:20:01.903Z,36.2
2022-08-11T12:25:02.627Z,36.7
2022-08-11T12:30:02.619Z,36.0
2022-08-11T12:35:02.412Z,34.7
2022-08-11T12:40:16.528Z,37.4
2022-08-11T12:45:02.815Z,34.9
2022-08-11T12:50:05.444Z,34.9
2022-08-11T12:55:13.507Z,35.7
2022-08-11T13:00:01.783Z,36.2
2022-08-11T13:05:02.681Z,35.5
2022-08-11T13:10:03.053Z,35.5
2022-08-11T13:15:01.897Z,37.2
2022-08-11T13:20:02.206Z,34.0
2022-08-11T13:25:02.085Z,34.0
2022-08-11T13:30:01.866Z,35.2
2022-08-11T13:35:02.743Z,38.0
2022-08-11T13:40:02.248Z,36.5
2022-08-11T13:45:01.999Z,34.4
2022-08-11T13:50:01.804Z,34.4
2022-08-11T13:55:02.590Z,35.0
2022-08-11T14:00:02.399Z,37.9
2022-08-11T14:05:02.310Z,37.9
2022-08-11T14:10:02.043Z,37.0
2022-08-11T14:15:07.615Z,37.0
2022-08-11T14:20:02.116Z,36.7
2022-08-11T14:25:02.584Z,34.7
2022-08-11T14:30:02.637Z,34.5
2022-08-11T14:35:02.564Z,36.5
2022-08-11T14:40:03.930Z,36.2
2022-08-11T14:45:12.195Z,36.2
2022-08-11T14:50:11.422Z,36.5
2022-08-11T14:55:02.373Z,36.5
2022-08-11T15:00:02.421Z,36.7
2022-08-11T15:05:02.286Z,36.7
2022-08-11T15:10:13.765Z,37.5
2022-08-11T15:15:01.970Z,37.5
2022-08-11T15:20:01.936Z,37.9
2022-08-11T15:25:02.761Z,37.9
2022-08-11T15:30:02.591Z,37.0
2022-08-11T15:35:03.994Z,37.0
2022-08-11T15:40:30.099Z,37.0
2022-08-11T15:45:04.368Z,37.0
2022-08-11T15:50:11.533Z,35.0
2022-08-11T15:55:02.415Z,35.0
2022-08-11T16:00:02.228Z,35.9
2022-08-11T16:05:02.101Z,35.9
2022-08-11T16:10:09.523Z,34.7
2022-08-11T16:15:02.573Z,34.7
2022-08-11T16:20:02.573Z,34.2
2022-08-11T16:27:06.118Z,34.0
2022-08-11T16:30:02.450Z,34.0
2022-08-11T16:35:02.237Z,34.5
2022-08-11T16:40:02.136Z,34.0
2022-08-11T16:45:02.062Z,34.0
2022-08-11T16:50:01.775Z,35.2
2022-08-11T16:55:02.691Z,35.2
2022-08-11T17:00:02.597Z,34.5
2022-08-11T17:05:02.351Z,34.5
2022-08-11T17:10:02.175Z,33.5
2022-08-11T17:15:01.973Z,33.5
2022-08-11T17:20:41.259Z,33.2
2022-08-11T17:25:02.690Z,33.2
2022-08-11T17:30:02.582Z,33.4
2022-08-11T17:35:12.402Z,33.4
2022-08-11T17:40:02.166Z,33.5
2022-08-11T17:45:02.187Z,33.5
2022-08-11T17:50:17.189Z,32.2
2022-08-11T17:55:02.206Z,32.2
2022-08-11T18:00:01.900Z,32.5
2022-08-11T18:05:02.755Z,32.5
2022-08-11T18:10:12.606Z,31.7
2022-08-11T18:15:02.434Z,31.7
2022-08-11T18:20:02.254Z,30.8
2022-08-11T18:25:02.106Z,30.8
2022-08-11T18:30:01.994Z,29.2
2022-08-11T18:35:11.946Z,29.2
2022-08-11T18:40:02.035Z,28.3
2022-08-11T18:45:01.882Z,28.3
2022-08-11T18:50:04.978Z,27.7
2022-08-11T18:55:02.307Z,27.7
2022-08-11T19:00:02.223Z,27.2
2022-08-11T19:05:02.066Z,27.2
2022-08-11T19:10:01.973Z,26.7
2022-08-11T19:15:01.835Z,26.7
2022-08-11T19:20:02.680Z,26.2
2022-08-11T19:25:12.523Z,26.2
2022-08-11T19:30:12.797Z,25.8
2022-08-11T19:35:01.784Z,25.7
2022-08-11T19:40:02.538Z,25.6
2022-08-11T19:45:02.155Z,25.6
2022-08-11T19:50:11.662Z,25.3
2022-08-11T19:55:01.788Z,25.3
2022-08-11T20:00:02.751Z,24.8
2022-08-11T20:05:02.584Z,24.8
2022-08-11T20:10:06.145Z,24.7
2022-08-11T20:15:02.554Z,24.7
2022-08-11T20:20:02.670Z,24.2
2022-08-11T20:25:02.678Z,24.2
2022-08-11T20:30:02.610Z,24.2
2022-08-11T20:35:08.288Z,24.2
2022-08-11T20:40:07.976Z,24.0
2022-08-11T20:45:17.687Z,24.0
2022-08-11T20:50:08.359Z,23.7
2022-08-11T20:55:10.522Z,23.7
2022-08-11T21:00:07.796Z,23.7
2022-08-11T21:05:07.731Z,23.7
2022-08-11T21:10:23.411Z,23.6
2022-08-11T21:15:07.903Z,23.6
2022-08-11T21:20:11.897Z,23.2
2022-08-11T21:25:08.221Z,23.2
2022-08-11T21:30:07.922Z,23.0
2022-08-11T21:35:18.607Z,23.0
2022-08-11T21:40:08.296Z,22.7
2022-08-11T21:45:08.003Z,22.7
2022-08-11T21:50:07.717Z,22.6
2022-08-11T21:55:08.417Z,22.6
2022-08-11T22:00:13.821Z,22.5
2022-08-11T22:05:08.463Z,22.5
2022-08-11T22:10:40.394Z,22.2
2022-08-11T22:15:08.302Z,22.2
2022-08-11T22:20:07.973Z,22.1
2022-08-11T22:25:16.010Z,22.1
2022-08-11T22:30:08.072Z,21.7
2022-08-11T22:35:07.747Z,21.7
2022-08-11T22:40:08.496Z,21.8
2022-08-11T22:45:08.238Z,21.8
2022-08-11T22:50:07.954Z,21.5
2022-08-11T22:55:17.671Z,21.5
2022-08-11T23:01:00.485Z,21.3
2022-08-11T23:05:08.362Z,21.3
2022-08-11T23:10:08.073Z,21.2
2022-08-11T23:15:07.786Z,21.2
2022-08-11T23:20:28.386Z,20.8
2022-08-11T23:25:08.321Z,20.8
2022-08-11T23:30:08.333Z,20.7
2022-08-11T23:35:38.337Z,20.7
2022-08-11T23:40:08.326Z,20.7
2022-08-11T23:45:09.552Z,20.7
2022-08-11T23:50:08.461Z,20.6
2022-08-11T23:55:08.122Z,20.6
